sensor_id;sensor_type;location;lat;lon;timestamp;pressure;altitude;pressure_sealevel;temperature;humidity
28181;BME280;15464;50.988;10.318;2022-11-06T12:06:54;98833.31;;;9.35;70.57
28181;BME280;15464;50.988;10.318;2022-11-06T12:09:24;98830.59;;;9.46;69.47
28181;BME280;15464;50.988;10.318;2022-11-06T12:11:52;98825.25;;;9.36;66.62
28181;BME280;15464;50.988;10.318;2022-11-06T12:16:49;98836.81;;;9.56;69.67
28181;BME280;15464;50.988;10.318;2022-11-06T12:19:18;98832.00;;;9.61;69.89
28181;BME280;15464;50.988;10.318;2022-11-06T12:21:50;98826.00;;;9.80;69.45
28181;BME280;15464;50.988;10.318;2022-11-06T12:24:23;98820.19;;;9.86;69.12
28181;BME280;15464;50.988;10.318;2022-11-06T12:26:58;98809.19;;;9.90;69.97
28181;BME280;15464;50.988;10.318;2022-11-06T12:29:37;98805.38;;;10.04;67.76
28181;BME280;15464;50.988;10.318;2022-11-06T12:34:45;98795.97;;;10.41;68.49
28181;BME280;15464;50.988;10.318;2022-11-06T12:37:24;98795.03;;;10.52;67.25
28181;BME280;15464;50.988;10.318;2022-11-06T12:40:11;98781.41;;;10.66;67.50
28181;BME280;15464;50.988;10.318;2022-11-06T12:42:51;98766.03;;;10.70;67.24
28181;BME280;15464;50.988;10.318;2022-11-06T12:45:28;98764.34;;;10.69;65.20
28181;BME280;15464;50.988;10.318;2022-11-06T12:50:50;98749.47;;;11.06;66.12
28181;BME280;15464;50.988;10.318;2022-11-06T12:53:43;98729.78;;;11.28;63.07
28181;BME280;15464;50.988;10.318;2022-11-06T12:56:15;98728.94;;;11.27;64.06
28181;BME280;15464;50.988;10.318;2022-11-06T12:58:57;98718.53;;;11.63;64.14
28181;BME280;15464;50.988;10.318;2022-11-06T13:01:43;98710.59;;;11.44;61.12
28181;BME280;15464;50.988;10.318;2022-11-06T13:04:29;98698.41;;;11.70;64.51
28181;BME280;15464;50.988;10.318;2022-11-06T13:07:29;98707.38;;;11.50;61.10
28181;BME280;15464;50.988;10.318;2022-11-06T13:15:31;98689.75;;;12.42;60.36
28181;BME280;15464;50.988;10.318;2022-11-06T13:21:06;98667.38;;;12.80;57.79
28181;BME280;15464;50.988;10.318;2022-11-06T13:23:50;98660.22;;;12.98;58.85
28181;BME280;15464;50.988;10.318;2022-11-06T13:28:59;98656.03;;;12.60;56.29
28181;BME280;15464;50.988;10.318;2022-11-06T13:31:59;98659.41;;;12.07;56.74
28181;BME280;15464;50.988;10.318;2022-11-06T13:34:37;98653.19;;;11.89;58.03
28181;BME280;15464;50.988;10.318;2022-11-06T13:37:12;98642.47;;;11.71;59.24
28181;BME280;15464;50.988;10.318;2022-11-06T13:42:39;98631.84;;;11.62;58.91
28181;BME280;15464;50.988;10.318;2022-11-06T13:45:08;98632.44;;;11.56;59.82
28181;BME280;15464;50.988;10.318;2022-11-06T13:50:33;98637.84;;;11.37;60.99
28181;BME280;15464;50.988;10.318;2022-11-06T13:55:58;98629.03;;;11.26;59.56
28181;BME280;15464;50.988;10.318;2022-11-06T13:59:03;98627.22;;;11.37;61.11
28181;BME280;15464;50.988;10.318;2022-11-06T14:07:09;98623.13;;;11.42;61.55
28181;BME280;15464;50.988;10.318;2022-11-06T14:09:41;98623.16;;;11.32;61.66
28181;BME280;15464;50.988;10.318;2022-11-06T14:12:21;98618.56;;;11.06;61.14
28181;BME280;15464;50.988;10.318;2022-11-06T14:15:12;98618.75;;;10.85;63.09
28181;BME280;15464;50.988;10.318;2022-11-06T14:17:35;98615.25;;;11.04;63.27
28181;BME280;15464;50.988;10.318;2022-11-06T14:26:02;98600.44;;;11.01;63.77
28181;BME280;15464;50.988;10.318;2022-11-06T14:28:35;98593.75;;;10.97;64.23
28181;BME280;15464;50.988;10.318;2022-11-06T14:31:02;98598.78;;;10.52;63.81
28181;BME280;15464;50.988;10.318;2022-11-06T14:36:42;98580.34;;;10.31;65.78
28181;BME280;15464;50.988;10.318;2022-11-06T14:39:12;98579.09;;;10.35;65.55
28181;BME280;15464;50.988;10.318;2022-11-06T14:44:19;98556.06;;;10.26;65.71
28181;BME280;15464;50.988;10.318;2022-11-06T14:46:52;98561.91;;;10.10;66.63
28181;BME280;15464;50.988;10.318;2022-11-06T14:49:29;98576.16;;;10.19;66.90
28181;BME280;15464;50.988;10.318;2022-11-06T14:52:37;98575.53;;;10.06;65.82
28181;BME280;15464;50.988;10.318;2022-11-06T14:54:57;98571.06;;;9.97;67.31
28181;BME280;15464;50.988;10.318;2022-11-06T14:57:42;98578.00;;;9.88;67.83
28181;BME280;15464;50.988;10.318;2022-11-06T15:00:31;98575.53;;;9.87;67.62
28181;BME280;15464;50.988;10.318;2022-11-06T15:03:01;98558.63;;;9.88;67.79
28181;BME280;15464;50.988;10.318;2022-11-06T15:05:29;98560.69;;;9.75;67.98
28181;BME280;15464;50.988;10.318;2022-11-06T15:07:57;98565.41;;;9.71;68.27
28181;BME280;15464;50.988;10.318;2022-11-06T15:13:14;98559.22;;;9.51;69.32
28181;BME280;15464;50.988;10.318;2022-11-06T15:15:51;98561.41;;;9.37;69.36
28181;BME280;15464;50.988;10.318;2022-11-06T15:18:20;98566.81;;;9.35;69.61
28181;BME280;15464;50.988;10.318;2022-11-06T15:20:56;98566.09;;;9.33;69.44
28181;BME280;15464;50.988;10.318;2022-11-06T15:23:31;98558.25;;;9.22;69.95
28181;BME280;15464;50.988;10.318;2022-11-06T15:26:05;98559.88;;;9.13;68.95
28181;BME280;15464;50.988;10.318;2022-11-06T15:28:39;98567.00;;;8.92;70.36
28181;BME280;15464;50.988;10.318;2022-11-06T15:31:13;98562.88;;;8.99;70.46
28181;BME280;15464;50.988;10.318;2022-11-06T15:33:45;98561.19;;;8.98;70.42
28181;BME280;15464;50.988;10.318;2022-11-06T15:36:21;98564.56;;;8.79;70.73
28181;BME280;15464;50.988;10.318;2022-11-06T15:38:48;98571.44;;;8.71;70.82
28181;BME280;15464;50.988;10.318;2022-11-06T15:41:18;98561.38;;;8.65;71.47
28181;BME280;15464;50.988;10.318;2022-11-06T15:43:49;98563.47;;;8.61;70.54
28181;BME280;15464;50.988;10.318;2022-11-06T15:49:07;98553.63;;;8.52;70.88
28181;BME280;15464;50.988;10.318;2022-11-06T15:54:52;98553.19;;;8.47;71.52
28181;BME280;15464;50.988;10.318;2022-11-06T15:57:25;98549.59;;;8.48;71.63
28181;BME280;15464;50.988;10.318;2022-11-06T16:02:52;98539.88;;;8.37;71.74
28181;BME280;15464;50.988;10.318;2022-11-06T16:05:26;98545.56;;;8.33;72.09
28181;BME280;15464;50.988;10.318;2022-11-06T16:07:55;98548.44;;;8.30;72.28
28181;BME280;15464;50.988;10.318;2022-11-06T16:10:23;98557.94;;;8.32;72.27
28181;BME280;15464;50.988;10.318;2022-11-06T16:12:50;98565.03;;;8.21;72.95
28181;BME280;15464;50.988;10.318;2022-11-06T16:18:46;98557.66;;;8.03;73.98
28181;BME280;15464;50.988;10.318;2022-11-06T16:21:20;98541.78;;;8.03;74.63
28181;BME280;15464;50.988;10.318;2022-11-06T16:23:51;98544.44;;;8.03;74.49
28181;BME280;15464;50.988;10.318;2022-11-06T16:28:54;98534.75;;;7.93;74.72
28181;BME280;15464;50.988;10.318;2022-11-06T16:31:29;98532.22;;;7.91;74.22
28181;BME280;15464;50.988;10.318;2022-11-06T16:34:00;98522.63;;;7.90;75.68
28181;BME280;15464;50.988;10.318;2022-11-06T16:36:29;98523.13;;;7.84;75.06
28181;BME280;15464;50.988;10.318;2022-11-06T16:47:17;98506.09;;;7.77;75.86
28181;BME280;15464;50.988;10.318;2022-11-06T16:49:54;98502.28;;;7.70;76.21
28181;BME280;15464;50.988;10.318;2022-11-06T16:52:33;98499.91;;;7.67;77.00
28181;BME280;15464;50.988;10.318;2022-11-06T16:57:33;98514.53;;;7.60;78.69
28181;BME280;15464;50.988;10.318;2022-11-06T17:00:27;98525.09;;;7.60;80.04
28181;BME280;15464;50.988;10.318;2022-11-06T17:03:02;98527.50;;;7.52;80.29
28181;BME280;15464;50.988;10.318;2022-11-06T17:05:32;98542.97;;;7.56;81.26
28181;BME280;15464;50.988;10.318;2022-11-06T17:10:47;98526.78;;;7.50;81.37
28181;BME280;15464;50.988;10.318;2022-11-06T17:13:30;98548.88;;;7.49;82.25
28181;BME280;15464;50.988;10.318;2022-11-06T17:15:59;98546.72;;;7.43;82.25
28181;BME280;15464;50.988;10.318;2022-11-06T17:18:31;98545.25;;;7.39;82.99
28181;BME280;15464;50.988;10.318;2022-11-06T17:21:00;98546.59;;;7.33;83.39
28181;BME280;15464;50.988;10.318;2022-11-06T17:23:28;98549.47;;;7.30;83.57
28181;BME280;15464;50.988;10.318;2022-11-06T17:26:01;98544.31;;;7.28;84.11
28181;BME280;15464;50.988;10.318;2022-11-06T17:28:29;98525.59;;;7.32;84.60
28181;BME280;15464;50.988;10.318;2022-11-06T17:30:55;98509.19;;;7.28;84.67
28181;BME280;15464;50.988;10.318;2022-11-06T17:33:22;98509.31;;;7.26;84.98
28181;BME280;15464;50.988;10.318;2022-11-06T17:35:49;98495.41;;;7.24;85.00
28181;BME280;15464;50.988;10.318;2022-11-06T17:38:16;98512.78;;;7.16;85.32
28181;BME280;15464;50.988;10.318;2022-11-06T17:40:44;98528.34;;;7.19;85.27
28181;BME280;15464;50.988;10.318;2022-11-06T17:43:11;98526.56;;;7.19;85.08
28181;BME280;15464;50.988;10.318;2022-11-06T17:45:40;98512.78;;;7.16;84.44
28181;BME280;15464;50.988;10.318;2022-11-06T17:48:09;98523.09;;;7.19;85.11
28181;BME280;15464;50.988;10.318;2022-11-06T17:50:36;98516.97;;;7.18;84.44
28181;BME280;15464;50.988;10.318;2022-11-06T17:53:21;98520.44;;;7.19;84.50
28181;BME280;15464;50.988;10.318;2022-11-06T17:55:48;98524.19;;;7.16;85.00
28181;BME280;15464;50.988;10.318;2022-11-06T17:58:14;98521.28;;;7.19;84.63
28181;BME280;15464;50.988;10.318;2022-11-06T18:00:41;98519.50;;;7.20;84.96
28181;BME280;15464;50.988;10.318;2022-11-06T18:03:15;98513.75;;;7.15;85.23
28181;BME280;15464;50.988;10.318;2022-11-06T18:05:43;98518.91;;;7.16;84.92
28181;BME280;15464;50.988;10.318;2022-11-06T18:08:12;98514.47;;;7.17;84.85
28181;BME280;15464;50.988;10.318;2022-11-06T18:10:39;98510.53;;;7.11;84.89
28181;BME280;15464;50.988;10.318;2022-11-06T18:13:06;98511.38;;;7.12;85.00
28181;BME280;15464;50.988;10.318;2022-11-06T18:15:34;98508.59;;;7.13;84.87
28181;BME280;15464;50.988;10.318;2022-11-06T18:18:01;98514.09;;;7.10;84.60
28181;BME280;15464;50.988;10.318;2022-11-06T18:20:28;98503.78;;;7.07;85.18
28181;BME280;15464;50.988;10.318;2022-11-06T18:22:54;98508.59;;;7.13;84.69
28181;BME280;15464;50.988;10.318;2022-11-06T18:25:21;98528.25;;;7.09;85.10
28181;BME280;15464;50.988;10.318;2022-11-06T18:27:48;98517.91;;;7.06;84.88
28181;BME280;15464;50.988;10.318;2022-11-06T18:30:14;98509.06;;;7.07;85.66
28181;BME280;15464;50.988;10.318;2022-11-06T18:32:41;98518.06;;;7.05;85.26
28181;BME280;15464;50.988;10.318;2022-11-06T18:35:08;98495.66;;;6.99;85.42
28181;BME280;15464;50.988;10.318;2022-11-06T18:37:34;98502.34;;;7.03;85.56
28181;BME280;15464;50.988;10.318;2022-11-06T18:40:01;98497.94;;;7.04;85.61
28181;BME280;15464;50.988;10.318;2022-11-06T18:42:28;98483.16;;;7.01;85.74
28181;BME280;15464;50.988;10.318;2022-11-06T18:44:55;98485.91;;;7.00;85.27
28181;BME280;15464;50.988;10.318;2022-11-06T18:47:21;98485.59;;;7.04;84.96
28181;BME280;15464;50.988;10.318;2022-11-06T18:49:48;98506.78;;;7.03;84.82
28181;BME280;15464;50.988;10.318;2022-11-06T18:52:15;98523.34;;;7.05;84.90
28181;BME280;15464;50.988;10.318;2022-11-06T18:55:01;98534.00;;;7.03;85.42
28181;BME280;15464;50.988;10.318;2022-11-06T18:57:29;98497.94;;;7.04;85.41
28181;BME280;15464;50.988;10.318;2022-11-06T18:59:55;98505.72;;;7.05;86.10
28181;BME280;15464;50.988;10.318;2022-11-06T19:02:22;98510.28;;;7.03;85.92
28181;BME280;15464;50.988;10.318;2022-11-06T19:04:49;98513.75;;;7.04;85.93
28181;BME280;15464;50.988;10.318;2022-11-06T19:07:16;98494.34;;;7.05;86.21
28181;BME280;15464;50.988;10.318;2022-11-06T19:09:43;98495.66;;;6.99;85.09
28181;BME280;15464;50.988;10.318;2022-11-06T19:12:10;98499.84;;;7.02;85.67
28181;BME280;15464;50.988;10.318;2022-11-06T19:14:36;98495.66;;;6.99;85.51
28181;BME280;15464;50.988;10.318;2022-11-06T19:17:03;98477.69;;;7.04;86.05
28181;BME280;15464;50.988;10.318;2022-11-06T19:19:30;98476.94;;;7.02;86.04
28181;BME280;15464;50.988;10.318;2022-11-06T19:21:56;98468.09;;;7.03;85.93
28181;BME280;15464;50.988;10.318;2022-11-06T19:24:23;98463.88;;;7.01;85.90
28181;BME280;15464;50.988;10.318;2022-11-06T19:26:49;98445.56;;;6.99;85.04
28181;BME280;15464;50.988;10.318;2022-11-06T19:29:16;98437.16;;;7.05;85.48
28181;BME280;15464;50.988;10.318;2022-11-06T19:31:43;98433.53;;;7.06;84.93
28181;BME280;15464;50.988;10.318;2022-11-06T19:34:12;98447.22;;;7.11;85.35
28181;BME280;15464;50.988;10.318;2022-11-06T19:36:39;98443.88;;;7.09;84.80
28181;BME280;15464;50.988;10.318;2022-11-06T19:39:06;98434.50;;;7.16;85.13
28181;BME280;15464;50.988;10.318;2022-11-06T19:41:33;98426.47;;;7.18;83.87
28181;BME280;15464;50.988;10.318;2022-11-06T19:43:59;98428.97;;;7.19;84.27
28181;BME280;15464;50.988;10.318;2022-11-06T19:46:26;98437.84;;;7.18;83.75
28181;BME280;15464;50.988;10.318;2022-11-06T19:49:02;98429.22;;;7.16;84.45
28181;BME280;15464;50.988;10.318;2022-11-06T19:51:29;98423.69;;;7.19;84.00
28181;BME280;15464;50.988;10.318;2022-11-06T19:53:57;98419.25;;;7.20;84.17
28181;BME280;15464;50.988;10.318;2022-11-06T19:56:23;98420.09;;;7.20;85.73
28181;BME280;15464;50.988;10.318;2022-11-06T19:58:51;98432.34;;;7.21;86.66
28181;BME280;15464;50.988;10.318;2022-11-06T20:01:18;98425.88;;;7.14;87.56
28181;BME280;15464;50.988;10.318;2022-11-06T20:03:46;98443.13;;;7.07;88.26
28181;BME280;15464;50.988;10.318;2022-11-06T20:06:13;98461.59;;;7.07;88.82
28181;BME280;15464;50.988;10.318;2022-11-06T20:08:40;98473.81;;;7.08;89.61
28181;BME280;15464;50.988;10.318;2022-11-06T20:11:09;98451.53;;;7.01;89.95
28181;BME280;15464;50.988;10.318;2022-11-06T20:13:40;98459.91;;;7.06;90.20
28181;BME280;15464;50.988;10.318;2022-11-06T20:16:10;98469.28;;;6.99;89.96
28181;BME280;15464;50.988;10.318;2022-11-06T20:18:36;98477.19;;;6.88;90.48
28181;BME280;15464;50.988;10.318;2022-11-06T20:21:05;98461.34;;;6.88;90.30
28181;BME280;15464;50.988;10.318;2022-11-06T20:23:33;98457.78;;;6.89;90.84
28181;BME280;15464;50.988;10.318;2022-11-06T20:26:01;98461.97;;;6.92;91.48
28181;BME280;15464;50.988;10.318;2022-11-06T20:28:28;98468.41;;;6.87;90.72
28181;BME280;15464;50.988;10.318;2022-11-06T20:30:55;98469.03;;;6.91;91.09
28181;BME280;15464;50.988;10.318;2022-11-06T20:33:22;98466.16;;;6.94;91.05
28181;BME280;15464;50.988;10.318;2022-11-06T20:35:49;98469.78;;;6.93;90.67
28181;BME280;15464;50.988;10.318;2022-11-06T20:38:15;98464.72;;;6.90;91.07
28181;BME280;15464;50.988;10.318;2022-11-06T20:40:42;98467.94;;;6.94;91.28
28181;BME280;15464;50.988;10.318;2022-11-06T20:43:10;98473.94;;;6.96;90.55
28181;BME280;15464;50.988;10.318;2022-11-06T20:45:37;98477.91;;;7.01;90.96
28181;BME280;15464;50.988;10.318;2022-11-06T20:48:06;98479.47;;;7.04;91.07
28181;BME280;15464;50.988;10.318;2022-11-06T20:50:33;98480.06;;;6.96;90.16
28181;BME280;15464;50.988;10.318;2022-11-06T20:53:00;98475.25;;;7.01;90.51
28181;BME280;15464;50.988;10.318;2022-11-06T20:55:26;98482.94;;;7.04;90.55
28181;BME280;15464;50.988;10.318;2022-11-06T20:57:53;98489.28;;;7.02;89.99
28181;BME280;15464;50.988;10.318;2022-11-06T21:00:20;98498.78;;;7.04;90.21
28181;BME280;15464;50.988;10.318;2022-11-06T21:02:46;98489.53;;;6.99;89.61
28181;BME280;15464;50.988;10.318;2022-11-06T21:05:13;98487.75;;;6.99;89.74
28181;BME280;15464;50.988;10.318;2022-11-06T21:07:40;98491.56;;;7.06;90.17
28181;BME280;15464;50.988;10.318;2022-11-06T21:10:07;98481.38;;;7.02;90.30
28181;BME280;15464;50.988;10.318;2022-11-06T21:12:36;98476.72;;;7.05;90.63
28181;BME280;15464;50.988;10.318;2022-11-06T21:15:03;98482.34;;;7.01;90.85
28181;BME280;15464;50.988;10.318;2022-11-06T21:17:30;98479.34;;;7.05;91.29
28181;BME280;15464;50.988;10.318;2022-11-06T21:19:57;98475.03;;;7.04;90.71
28181;BME280;15464;50.988;10.318;2022-11-06T21:22:23;98482.94;;;7.04;90.31
